Terminal Aerodrome Forecast
Issued by NWS North Platte, NE

Home | Current Version | Previous Version | Graphics & Text | Print | Product List | Glossary On
Versions: 1 2 3 4 5 6 7 8 9 10 11 12 13 14 15 16 17 18 19 20
000
FTUS43 KLBF 171120
TAFVTN
TAF
KVTN 171120Z 1712/1812 17010KT P6SM FEW250
     FM171600 17016G22KT P6SM FEW250
     FM180000 15018G25KT P6SM VCTS BKN120CB
     FM180400 15012KT P6SM VCTS BKN200CB WS020/16050KT
     FM180600 15010KT 6SM SHRA VCTS OVC090CB=

USA.gov is the U.S. government's official web portal to all federal, state and local government web resources and services.